Time;durP1;ratioP1;P1;durP2;ratioP2;P2;SDS_P1;SDS_P2;PMS_P1;PMS_P2;Temp;Humidity;BMP_temperature;BMP_pressure;BME280_temperature;BME280_humidity;BME280_pressure;Samples;Min_cycle;Max_cycle;Signal;HPM_P1;HPM_P2
2021/09/01 12:03:26;;;;;;;10.52;5.93;;;15.40;99.90;;;;;;2616149;39;20906;-40
2021/09/01 15:30:24;;;;;;;5.57;4.45;;;23.40;99.90;;;;;;2631215;47;20212;-79
2021/09/01 15:32:55;;;;;;;7.45;4.90;;;28.20;99.90;;;;;;2630760;47;20188;-81
2021/09/01 15:35:24;;;;;;;5.90;4.40;;;28.00;99.90;;;;;;2630451;47;20140;-83
2021/09/01 15:37:52;;;;;;;7.32;5.72;;;27.40;99.90;;;;;;2633634;46;20165;-83
2021/09/01 15:40:21;;;;;;;8.35;4.97;;;26.00;99.90;;;;;;2631450;54;20157;-82
2021/09/01 15:42:52;;;;;;;11.32;5.07;;;25.90;99.90;;;;;;2628390;46;20208;-80
2021/09/01 15:45:24;;;;;;;5.78;5.15;;;25.70;99.90;;;;;;2629244;47;20148;-77
2021/09/01 15:47:57;;;;;;;8.48;5.38;;;25.30;99.90;;;;;;2630942;51;20197;-79
2021/09/01 15:50:27;;;;;;;10.65;5.20;;;25.70;99.90;;;;;;2631263;47;20138;-80
2021/09/01 15:52:56;;;;;;;8.07;5.22;;;25.70;99.90;;;;;;2631346;47;20160;-78
2021/09/01 15:55:26;;;;;;;9.63;5.22;;;26.30;99.90;;;;;;2630880;46;20157;-78
2021/09/01 15:57:56;;;;;;;7.38;4.95;;;26.80;99.90;;;;;;2631144;47;20129;-80
2021/09/01 16:00:28;;;;;;;6.80;4.88;;;27.30;99.90;;;;;;2631385;47;20122;-79
2021/09/01 16:03:00;;;;;;;10.13;5.30;;;26.40;99.90;;;;;;2631113;54;20159;-79
2021/09/01 16:05:30;;;;;;;6.63;4.97;;;26.90;99.90;;;;;;2630939;54;20126;-79
2021/09/01 16:07:58;;;;;;;6.82;4.55;;;27.90;99.90;;;;;;2634957;31;20802;-80
2021/09/01 16:10:27;;;;;;;7.43;4.78;;;27.60;99.90;;;;;;2630745;46;20169;-78
2021/09/01 16:12:57;;;;;;;6.25;4.63;;;27.20;99.90;;;;;;2641051;39;20397;-79
2021/09/01 16:15:32;;;;;;;4.68;4.28;;;26.40;99.90;;;;;;2631346;46;20156;-79
2021/09/01 16:18:07;;;;;;;7.55;4.70;;;25.60;99.90;;;;;;2631085;47;20145;-80
2021/09/01 16:20:39;;;;;;;8.43;5.07;;;24.90;99.90;;;;;;2630959;54;20139;-79
2021/09/01 16:23:09;;;;;;;8.00;4.75;;;25.40;99.90;;;;;;2631031;54;20184;-79
2021/09/01 16:25:39;;;;;;;5.75;4.25;;;25.10;99.90;;;;;;2630365;47;20138;-79
2021/09/01 16:28:09;;;;;;;11.85;5.32;;;25.30;99.90;;;;;;2630986;47;20157;-79
2021/09/01 16:30:41;;;;;;;6.80;4.75;;;25.50;99.90;;;;;;2629984;47;20172;-78
2021/09/01 16:33:10;;;;;;;11.27;5.43;;;25.90;99.90;;;;;;2629988;54;20213;-77
2021/09/01 16:35:38;;;;;;;6.63;4.53;;;26.70;99.90;;;;;;2630728;54;20153;-79
2021/09/01 16:38:13;;;;;;;8.38;5.63;;;25.50;99.90;;;;;;2631166;54;20133;-80
2021/09/01 16:40:47;;;;;;;6.20;5.13;;;24.90;99.90;;;;;;2631238;47;20152;-81
2021/09/01 16:43:16;;;;;;;7.95;5.22;;;25.10;99.90;;;;;;2631105;54;20165;-80
2021/09/01 16:45:48;;;;;;;8.07;5.57;;;24.60;99.90;;;;;;2630652;47;20142;-80
2021/09/01 16:48:19;;;;;;;6.85;4.53;;;24.70;99.90;;;;;;2630959;47;20142;-80
2021/09/01 16:50:51;;;;;;;9.15;5.18;;;25.40;99.90;;;;;;2631136;46;20133;-79
2021/09/01 16:53:22;;;;;;;7.38;5.85;;;25.90;99.90;;;;;;2631167;47;20153;-82
2021/09/01 16:55:57;;;;;;;8.63;4.50;;;25.60;99.90;;;;;;2630750;46;20146;-78
2021/09/01 16:58:28;;;;;;;8.48;4.95;;;25.00;99.90;;;;;;2630919;47;20177;-79
2021/09/01 17:01:01;;;;;;;8.10;5.03;;;24.40;99.90;;;;;;2631184;47;20181;-81
2021/09/01 17:03:33;;;;;;;6.93;4.60;;;24.10;99.90;;;;;;2630939;54;20212;-79
2021/09/01 17:06:04;;;;;;;8.77;5.63;;;23.00;99.90;;;;;;2630714;54;20149;-80
2021/09/01 17:08:37;;;;;;;9.55;5.18;;;23.10;99.90;;;;;;2631217;47;20136;-81
2021/09/01 17:11:09;;;;;;;7.78;5.15;;;23.00;99.90;;;;;;2630976;47;20963;-80
2021/09/01 17:13:40;;;;;;;7.07;4.85;;;23.20;99.90;;;;;;2630884;47;20180;-78
2021/09/01 17:16:12;;;;;;;7.07;4.78;;;23.40;99.90;;;;;;2630815;46;20137;-78
2021/09/01 17:18:40;;;;;;;7.78;5.10;;;23.10;99.90;;;;;;2630988;47;20217;-79
2021/09/01 17:21:09;;;;;;;7.85;5.35;;;22.90;99.90;;;;;;2630860;47;20185;-79
2021/09/01 17:23:38;;;;;;;9.43;5.68;;;22.70;99.90;;;;;;2640841;39;20399;-80
2021/09/01 17:26:08;;;;;;;9.40;5.00;;;22.60;99.90;;;;;;2630275;54;20169;-79
2021/09/01 17:28:44;;;;;;;6.97;5.45;;;22.40;99.90;;;;;;2630807;47;20221;-78
2021/09/01 17:31:21;;;;;;;10.43;5.47;;;22.30;99.90;;;;;;2631117;46;20155;-80
2021/09/01 17:33:51;;;;;;;9.20;5.28;;;22.30;99.90;;;;;;2630983;47;20164;-77
2021/09/01 17:36:20;;;;;;;8.57;5.05;;;22.00;99.90;;;;;;2630671;54;20156;-80
2021/09/01 17:38:52;;;;;;;7.70;5.82;;;21.80;99.90;;;;;;2631023;47;20125;-78
2021/09/01 17:41:24;;;;;;;6.13;5.15;;;21.40;99.90;;;;;;2630946;47;20130;-80
2021/09/01 17:43:53;;;;;;;8.40;4.85;;;21.40;99.90;;;;;;2631067;47;20189;-80
2021/09/01 17:46:25;;;;;;;9.68;5.97;;;21.20;99.90;;;;;;2630663;54;20146;-80
2021/09/01 17:48:54;;;;;;;9.95;5.95;;;20.90;99.90;;;;;;2630974;47;20145;-78
2021/09/01 17:51:24;;;;;;;7.57;5.43;;;20.90;99.90;;;;;;2630778;54;20205;-77
2021/09/01 17:53:53;;;;;;;11.95;5.72;;;20.70;99.90;;;;;;2622474;54;20149;-81
2021/09/01 17:56:22;;;;;;;8.52;5.43;;;20.60;99.90;;;;;;2626172;54;20149;-79
2021/09/01 17:58:51;;;;;;;8.90;5.03;;;20.60;99.90;;;;;;2626697;54;20164;-76
2021/09/01 18:01:20;;;;;;;10.20;5.85;;;20.50;99.90;;;;;;2626679;47;20189;-75
2021/09/01 18:03:54;;;;;;;6.38;5.03;;;20.20;99.90;;;;;;2629431;47;20141;-79
2021/09/01 18:06:23;;;;;;;6.88;4.65;;;20.00;99.90;;;;;;2629409;46;20193;-79
2021/09/01 18:08:52;;;;;;;8.18;6.00;;;19.90;99.90;;;;;;2627129;46;20126;-79
2021/09/01 18:11:21;;;;;;;11.43;5.32;;;19.80;99.90;;;;;;2627575;47;20850;-81
2021/09/01 18:13:50;;;;;;;11.23;5.05;;;19.80;99.90;;;;;;2624836;54;20153;-80
2021/09/01 18:16:19;;;;;;;10.13;6.18;;;19.80;99.90;;;;;;2628291;54;20152;-79
2021/09/01 18:18:50;;;;;;;8.77;4.97;;;19.70;99.90;;;;;;2629655;47;20145;-79
2021/09/01 18:21:19;;;;;;;8.05;5.07;;;19.70;99.90;;;;;;2629478;47;20151;-79
2021/09/01 18:23:48;;;;;;;10.70;5.32;;;19.50;99.90;;;;;;2628895;54;20146;-79
2021/09/01 18:26:17;;;;;;;9.48;5.60;;;19.40;99.90;;;;;;2626991;47;20169;-79
2021/09/01 18:28:46;;;;;;;10.43;5.72;;;19.30;99.90;;;;;;2627322;47;20494;-81
2021/09/01 18:31:15;;;;;;;11.57;4.95;;;19.30;99.90;;;;;;2623708;39;20730;-79
2021/09/01 18:33:44;;;;;;;7.40;5.07;;;19.10;99.90;;;;;;2628322;54;20168;-79
2021/09/01 18:36:15;;;;;;;8.10;5.18;;;19.10;99.90;;;;;;2632085;39;20413;-78
2021/09/01 18:38:44;;;;;;;6.97;4.53;;;18.90;99.90;;;;;;2629917;47;20157;-80
2021/09/01 18:41:17;;;;;;;11.07;5.85;;;18.80;99.90;;;;;;2630892;39;20350;-80
2021/09/01 18:43:51;;;;;;;6.60;4.88;;;18.60;99.90;;;;;;2634852;39;20655;-80
2021/09/01 18:46:20;;;;;;;11.13;5.55;;;18.20;99.90;;;;;;2629389;47;20149;-78
2021/09/01 18:48:50;;;;;;;8.20;5.05;;;18.10;99.90;;;;;;2629960;47;20149;-81
2021/09/01 18:51:21;;;;;;;11.02;5.85;;;18.20;99.90;;;;;;2629651;47;20628;-79
2021/09/01 18:53:51;;;;;;;9.82;7.00;;;18.20;99.90;;;;;;2629482;47;20797;-80
2021/09/01 18:56:20;;;;;;;7.43;6.38;;;18.00;99.90;;;;;;2629673;47;20845;-80
2021/09/01 18:58:49;;;;;;;11.15;6.05;;;18.00;99.90;;;;;;2629564;47;20149;-81
2021/09/01 19:01:25;;;;;;;12.05;5.70;;;18.10;99.90;;;;;;2629519;54;20163;-80
2021/09/01 19:03:59;;;;;;;10.05;5.97;;;18.10;99.90;;;;;;2629481;47;20204;-80
2021/09/01 19:06:37;;;;;;;6.70;5.95;;;18.10;99.90;;;;;;2629318;47;20169;-78
2021/09/01 19:09:12;;;;;;;7.28;6.15;;;18.10;99.90;;;;;;2629624;47;20193;-80
2021/09/01 19:11:44;;;;;;;12.90;6.32;;;18.00;99.90;;;;;;2629483;54;20182;-77
2021/09/01 19:14:16;;;;;;;8.60;6.03;;;17.90;99.90;;;;;;2629663;54;20155;-80
2021/09/01 19:16:45;;;;;;;10.38;6.18;;;17.80;99.90;;;;;;2634344;39;20445;-81
2021/09/01 19:19:15;;;;;;;7.78;5.55;;;17.80;99.90;;;;;;2630607;46;20197;-80
2021/09/01 19:21:47;;;;;;;8.25;6.32;;;17.80;99.90;;;;;;2630209;47;20169;-80
2021/09/01 19:24:16;;;;;;;9.00;6.40;;;17.70;99.90;;;;;;2629495;47;20161;-80
2021/09/01 19:26:45;;;;;;;8.07;5.35;;;17.70;99.90;;;;;;2629885;54;20213;-82
2021/09/01 19:29:16;;;;;;;10.85;5.80;;;17.70;99.90;;;;;;2630025;47;20149;-79
2021/09/01 19:31:46;;;;;;;9.10;6.00;;;17.60;99.90;;;;;;2630039;46;20181;-79
2021/09/01 19:34:21;;;;;;;9.63;5.68;;;17.50;99.90;;;;;;2629920;47;20145;-80
2021/09/01 19:36:53;;;;;;;11.73;6.97;;;17.50;99.90;;;;;;2630097;46;20147;-81
2021/09/01 19:39:22;;;;;;;7.47;5.57;;;17.70;99.90;;;;;;2630444;46;20158;-76
2021/09/01 19:41:51;;;;;;;7.65;5.70;;;17.80;99.90;;;;;;2630297;54;20176;-79
2021/09/01 19:44:21;;;;;;;8.27;5.50;;;17.70;99.90;;;;;;2629946;46;20152;-76
2021/09/01 19:46:51;;;;;;;9.43;5.38;;;18.10;99.90;;;;;;2630488;46;20197;-80
2021/09/01 19:49:20;;;;;;;8.32;5.60;;;17.90;99.90;;;;;;2630357;54;20214;-81
2021/09/01 19:51:53;;;;;;;9.77;4.80;;;17.90;99.90;;;;;;2630203;46;20176;-82
2021/09/01 19:54:22;;;;;;;6.85;5.30;;;17.80;99.90;;;;;;2637808;39;20359;-77
2021/09/01 19:56:52;;;;;;;10.38;6.40;;;17.70;99.90;;;;;;2629996;54;20199;-78
2021/09/01 19:59:22;;;;;;;9.98;5.72;;;17.60;99.90;;;;;;2630305;52;20126;-80
2021/09/01 20:01:52;;;;;;;9.73;6.55;;;17.50;99.90;;;;;;2630173;54;20169;-81
2021/09/01 20:04:22;;;;;;;7.20;5.65;;;17.70;99.90;;;;;;2629523;46;20153;-76
2021/09/01 20:06:54;;;;;;;8.18;5.50;;;18.10;99.90;;;;;;2629833;47;20190;-80
2021/09/01 20:09:23;;;;;;;8.10;5.53;;;17.90;99.90;;;;;;2630233;46;20171;-81
2021/09/01 20:11:52;;;;;;;9.10;5.55;;;17.90;99.90;;;;;;2630480;54;20198;-81
2021/09/01 20:14:21;;;;;;;8.10;5.95;;;17.70;99.90;;;;;;2629831;54;20232;-77
2021/09/01 20:16:52;;;;;;;8.90;5.28;;;17.60;99.90;;;;;;2638226;31;20694;-80
2021/09/01 20:19:22;;;;;;;9.85;5.13;;;17.50;99.90;;;;;;2630637;47;20145;-79
2021/09/01 20:21:54;;;;;;;12.32;6.85;;;17.30;99.90;;;;;;2630587;46;20184;-81
2021/09/01 20:24:23;;;;;;;10.77;5.90;;;17.40;99.90;;;;;;2630043;47;20148;-80
2021/09/01 20:26:54;;;;;;;10.55;5.65;;;17.40;99.90;;;;;;2630540;47;20908;-79
2021/09/01 20:29:22;;;;;;;10.02;5.90;;;17.30;99.90;;;;;;2630383;54;20156;-79
2021/09/01 20:31:51;;;;;;;11.00;6.88;;;17.40;99.90;;;;;;2630225;46;20213;-79
2021/09/01 20:34:20;;;;;;;9.82;6.43;;;17.50;99.90;;;;;;2630182;47;20136;-75
2021/09/01 20:36:49;;;;;;;11.38;5.97;;;17.50;99.90;;;;;;2630579;54;20156;-79
2021/09/01 20:39:22;;;;;;;9.77;6.22;;;17.50;99.90;;;;;;2630567;47;20133;-80
2021/09/01 20:41:52;;;;;;;10.88;6.20;;;17.20;99.90;;;;;;2630610;46;20157;-80
2021/09/01 20:44:21;;;;;;;9.10;6.60;;;17.10;99.90;;;;;;2630098;47;20193;-75
2021/09/01 20:46:56;;;;;;;9.73;5.53;;;17.10;99.90;;;;;;2630714;54;20157;-80
2021/09/01 20:49:30;;;;;;;6.20;5.43;;;17.20;99.90;;;;;;2630669;47;20149;-81
2021/09/01 20:52:05;;;;;;;14.48;5.50;;;17.20;99.90;;;;;;2630670;54;20168;-75
2021/09/01 20:54:40;;;;;;;8.60;5.95;;;17.10;99.90;;;;;;2630263;54;20155;-81
2021/09/01 20:57:10;;;;;;;8.07;5.50;;;17.10;99.90;;;;;;2630712;54;20871;-79
2021/09/01 20:59:39;;;;;;;10.63;6.07;;;17.20;99.90;;;;;;2630517;46;20148;-78
2021/09/01 21:02:08;;;;;;;9.15;6.63;;;17.10;99.90;;;;;;2634114;39;20836;-79
2021/09/01 21:04:38;;;;;;;6.85;5.57;;;17.10;99.90;;;;;;2630163;54;20173;-78
2021/09/01 21:07:07;;;;;;;7.88;5.47;;;17.00;99.90;;;;;;2630357;47;20168;-80
2021/09/01 21:09:39;;;;;;;6.95;5.88;;;16.80;99.90;;;;;;2630421;47;20172;-79
2021/09/01 21:12:09;;;;;;;8.82;6.28;;;16.80;99.90;;;;;;2629955;46;20173;-78
2021/09/01 21:14:38;;;;;;;9.25;5.95;;;17.00;99.90;;;;;;2634865;39;20553;-79
2021/09/01 21:17:14;;;;;;;12.55;6.70;;;17.30;99.90;;;;;;2630348;54;20132;-79
2021/09/01 21:19:45;;;;;;;11.18;6.63;;;17.30;99.90;;;;;;2630378;46;20157;-79
2021/09/01 21:22:19;;;;;;;10.05;6.28;;;17.20;99.90;;;;;;2633255;39;20589;-79
2021/09/01 21:24:54;;;;;;;11.35;5.97;;;17.00;99.90;;;;;;2630105;54;20145;-79
2021/09/01 21:27:25;;;;;;;6.47;5.70;;;16.90;99.90;;;;;;2630291;54;20135;-79
2021/09/01 21:29:58;;;;;;;11.10;6.45;;;16.80;99.90;;;;;;2630339;54;20173;-79
2021/09/01 21:32:30;;;;;;;9.00;6.15;;;16.70;99.90;;;;;;2630152;47;20157;-81
2021/09/01 21:35:01;;;;;;;7.22;5.45;;;16.60;99.90;;;;;;2629584;47;20738;-80
2021/09/01 21:37:31;;;;;;;9.65;5.70;;;16.50;99.90;;;;;;2630395;47;20185;-80
2021/09/01 21:40:05;;;;;;;11.52;6.50;;;16.50;99.90;;;;;;2630311;47;20172;-79
2021/09/01 21:42:34;;;;;;;10.32;6.60;;;16.50;99.90;;;;;;2623455;47;20240;-41
2021/09/01 21:45:04;;;;;;;8.45;6.38;;;16.70;99.90;;;;;;2616441;54;20153;-41
2021/09/01 21:47:33;;;;;;;8.15;6.78;;;16.90;99.90;;;;;;2615113;47;20197;-42
2021/09/01 21:50:02;;;;;;;9.63;6.82;;;17.00;99.90;;;;;;2615808;54;20146;-41
2021/09/01 21:52:32;;;;;;;11.07;6.90;;;17.00;99.90;;;;;;2615813;54;20176;-42
2021/09/01 21:55:04;;;;;;;12.50;6.70;;;17.10;99.90;;;;;;2615636;51;20157;-41
2021/09/01 21:57:33;;;;;;;10.70;6.78;;;17.10;99.90;;;;;;2616748;54;20189;-41
2021/09/01 22:00:02;;;;;;;10.57;6.90;;;17.30;99.90;;;;;;2616705;54;20141;-41
2021/09/01 22:02:33;;;;;;;8.27;6.47;;;17.50;99.90;;;;;;2616445;54;20181;-43
2021/09/01 22:05:02;;;;;;;12.00;6.18;;;17.30;99.90;;;;;;2616581;54;20130;-42
2021/09/01 22:07:30;;;;;;;13.07;7.07;;;17.30;99.90;;;;;;2616833;47;20153;-42
2021/09/01 22:09:59;;;;;;;9.88;6.43;;;17.30;99.90;;;;;;2616714;54;20148;-41
2021/09/01 22:12:32;;;;;;;10.68;6.82;;;17.20;99.90;;;;;;2616483;54;20176;-42
2021/09/01 22:15:01;;;;;;;8.38;5.90;;;17.60;99.90;;;;;;2616482;54;20140;-41
2021/09/01 22:17:30;;;;;;;9.90;6.20;;;17.60;99.90;;;;;;2616833;54;20158;-41
2021/09/01 22:19:58;;;;;;;7.05;6.35;;;17.30;99.90;;;;;;2616992;54;20134;-41
2021/09/01 22:22:29;;;;;;;11.75;6.65;;;17.20;99.90;;;;;;2616430;54;20180;-42
2021/09/01 22:24:57;;;;;;;10.05;6.22;;;17.10;99.90;;;;;;2616474;54;20149;-42
2021/09/01 22:27:26;;;;;;;11.95;6.85;;;16.90;99.90;;;;;;2616595;54;20157;-41
2021/09/01 22:29:59;;;;;;;11.30;6.32;;;17.10;99.90;;;;;;2617095;39;20588;-42
2021/09/01 22:32:29;;;;;;;10.50;7.07;;;17.10;99.90;;;;;;2616511;54;20268;-41
2021/09/01 22:34:58;;;;;;;10.18;6.22;;;17.00;99.90;;;;;;2616435;54;20705;-41
2021/09/01 22:37:26;;;;;;;9.38;6.18;;;16.80;99.90;;;;;;2616613;51;20152;-43
2021/09/01 22:39:55;;;;;;;17.83;7.57;;;16.60;99.90;;;;;;2616444;54;20222;-41
2021/09/01 22:42:24;;;;;;;12.18;7.10;;;16.60;99.90;;;;;;2615856;54;20156;-41
2021/09/01 22:44:53;;;;;;;8.98;5.57;;;16.60;99.90;;;;;;2616726;39;20560;-41
2021/09/01 22:47:24;;;;;;;13.02;7.07;;;16.40;99.90;;;;;;2616392;54;20145;-41
2021/09/01 22:49:53;;;;;;;9.57;6.43;;;16.40;99.90;;;;;;2616651;54;20138;-41
2021/09/01 22:52:22;;;;;;;12.65;7.22;;;16.40;99.90;;;;;;2616337;54;20141;-41
2021/09/01 22:54:50;;;;;;;10.93;7.30;;;16.50;99.90;;;;;;2616732;39;20577;-41
2021/09/01 22:57:19;;;;;;;10.23;6.57;;;16.50;99.90;;;;;;2616564;54;20137;-41
2021/09/01 22:59:48;;;;;;;11.27;6.85;;;16.60;99.90;;;;;;2616567;54;20145;-41
2021/09/01 23:02:17;;;;;;;9.90;6.82;;;16.50;99.90;;;;;;2616385;54;20145;-41
2021/09/01 23:04:48;;;;;;;9.20;6.60;;;16.50;99.90;;;;;;2616340;54;20137;-41
2021/09/01 23:07:17;;;;;;;10.48;7.15;;;16.50;99.90;;;;;;2616505;54;20145;-41
2021/09/01 23:09:46;;;;;;;11.75;7.40;;;16.50;99.90;;;;;;2616108;54;20142;-40
2021/09/01 23:12:15;;;;;;;16.83;8.15;;;16.40;99.90;;;;;;2616517;54;20180;-42
2021/09/01 23:14:44;;;;;;;15.93;9.80;;;16.20;99.90;;;;;;2616257;47;20145;-40
2021/09/01 23:17:12;;;;;;;12.68;7.57;;;16.20;99.90;;;;;;2616494;54;20141;-41
2021/09/01 23:19:41;;;;;;;9.93;7.18;;;16.00;99.90;;;;;;2616594;54;20145;-41
2021/09/01 23:22:12;;;;;;;11.95;8.30;;;16.10;99.90;;;;;;2616420;54;20153;-41
2021/09/01 23:24:41;;;;;;;11.57;7.80;;;16.10;99.90;;;;;;2616684;39;20620;-41
2021/09/01 23:27:10;;;;;;;10.55;7.93;;;16.10;99.90;;;;;;2616331;47;20153;-41
2021/09/01 23:29:39;;;;;;;14.73;7.88;;;16.00;99.90;;;;;;2616369;54;20698;-41
2021/09/01 23:32:09;;;;;;;14.05;8.55;;;16.20;99.90;;;;;;2616045;54;20161;-42
2021/09/01 23:34:37;;;;;;;11.65;7.95;;;16.30;99.90;;;;;;2616160;47;20179;-41
2021/09/01 23:37:06;;;;;;;18.33;9.27;;;16.10;99.90;;;;;;2616301;54;20152;-41
2021/09/01 23:39:38;;;;;;;16.02;9.68;;;16.10;99.90;;;;;;2616254;54;20698;-41
2021/09/01 23:42:07;;;;;;;14.23;8.65;;;16.20;99.90;;;;;;2616227;47;20161;-42
2021/09/01 23:44:36;;;;;;;11.27;7.88;;;16.00;99.90;;;;;;2616040;54;20150;-42
2021/09/01 23:47:05;;;;;;;15.20;8.43;;;16.00;99.90;;;;;;2616398;54;20702;-41
2021/09/01 23:49:34;;;;;;;13.13;8.82;;;16.00;99.90;;;;;;2616321;54;20158;-43
2021/09/01 23:52:02;;;;;;;14.23;9.13;;;16.10;99.90;;;;;;2616194;54;20138;-41
2021/09/01 23:54:31;;;;;;;12.90;9.07;;;15.90;99.90;;;;;;2616202;54;20146;-41
2021/09/01 23:57:02;;;;;;;12.75;9.55;;;15.80;99.90;;;;;;2616478;54;20221;-41
2021/09/01 23:59:31;;;;;;;14.10;7.57;;;15.50;99.90;;;;;;2617120;47;20141;-41
